sensor_id;sensor_type;location;lat;lon;timestamp;P1;durP1;ratioP1;P2;durP2;ratioP2
4827;SDS011;2428;48.732;9.148;2022-09-09T00:00:17;1.00;;;0.90;;
4827;SDS011;2428;48.732;9.148;2022-09-09T00:02:46;0.70;;;0.70;;
4827;SDS011;2428;48.732;9.148;2022-09-09T00:05:28;0.87;;;0.80;;
4827;SDS011;2428;48.732;9.148;2022-09-09T00:07:59;0.57;;;0.57;;
4827;SDS011;2428;48.732;9.148;2022-09-09T00:10:38;0.87;;;0.83;;
4827;SDS011;2428;48.732;9.148;2022-09-09T00:13:16;1.00;;;1.00;;
4827;SDS011;2428;48.732;9.148;2022-09-09T00:21:31;0.70;;;0.67;;
4827;SDS011;2428;48.732;9.148;2022-09-09T00:28:08;1.07;;;0.80;;
4827;SDS011;2428;48.732;9.148;2022-09-09T00:30:20;0.73;;;0.70;;
4827;SDS011;2428;48.732;9.148;2022-09-09T00:32:54;0.60;;;0.60;;
4827;SDS011;2428;48.732;9.148;2022-09-09T00:35:29;0.80;;;0.80;;
4827;SDS011;2428;48.732;9.148;2022-09-09T00:38:00;1.03;;;0.80;;
4827;SDS011;2428;48.732;9.148;2022-09-09T00:40:41;1.17;;;0.60;;
4827;SDS011;2428;48.732;9.148;2022-09-09T00:48:22;1.20;;;0.73;;
4827;SDS011;2428;48.732;9.148;2022-09-09T00:51:02;0.63;;;0.63;;
4827;SDS011;2428;48.732;9.148;2022-09-09T00:56:20;1.73;;;0.87;;
4827;SDS011;2428;48.732;9.148;2022-09-09T01:01:43;1.13;;;0.83;;
4827;SDS011;2428;48.732;9.148;2022-09-09T01:04:10;1.60;;;0.93;;
4827;SDS011;2428;48.732;9.148;2022-09-09T01:06:41;0.97;;;0.83;;
4827;SDS011;2428;48.732;9.148;2022-09-09T01:14:57;0.80;;;0.80;;
4827;SDS011;2428;48.732;9.148;2022-09-09T01:17:42;1.20;;;1.10;;
4827;SDS011;2428;48.732;9.148;2022-09-09T01:20:15;0.60;;;0.60;;
4827;SDS011;2428;48.732;9.148;2022-09-09T01:28:29;0.40;;;0.40;;
4827;SDS011;2428;48.732;9.148;2022-09-09T01:30:56;4.73;;;1.07;;
4827;SDS011;2428;48.732;9.148;2022-09-09T01:33:23;0.60;;;0.60;;
4827;SDS011;2428;48.732;9.148;2022-09-09T01:35:53;0.70;;;0.50;;
4827;SDS011;2428;48.732;9.148;2022-09-09T01:38:40;0.80;;;0.73;;
4827;SDS011;2428;48.732;9.148;2022-09-09T01:41:05;0.67;;;0.67;;
4827;SDS011;2428;48.732;9.148;2022-09-09T01:43:31;1.37;;;0.90;;
4827;SDS011;2428;48.732;9.148;2022-09-09T01:45:58;1.00;;;0.53;;
4827;SDS011;2428;48.732;9.148;2022-09-09T01:48:26;1.10;;;1.03;;
4827;SDS011;2428;48.732;9.148;2022-09-09T01:50:52;1.57;;;0.83;;
4827;SDS011;2428;48.732;9.148;2022-09-09T01:53:18;0.63;;;0.63;;
4827;SDS011;2428;48.732;9.148;2022-09-09T01:56:03;0.50;;;0.50;;
4827;SDS011;2428;48.732;9.148;2022-09-09T02:04:11;0.70;;;0.70;;
4827;SDS011;2428;48.732;9.148;2022-09-09T02:06:59;0.97;;;0.87;;
4827;SDS011;2428;48.732;9.148;2022-09-09T02:09:25;1.27;;;0.77;;
4827;SDS011;2428;48.732;9.148;2022-09-09T02:11:57;1.80;;;0.80;;
4827;SDS011;2428;48.732;9.148;2022-09-09T02:14:32;0.70;;;0.70;;
4827;SDS011;2428;48.732;9.148;2022-09-09T02:17:09;1.67;;;0.57;;
4827;SDS011;2428;48.732;9.148;2022-09-09T02:19:37;1.07;;;0.97;;
4827;SDS011;2428;48.732;9.148;2022-09-09T02:22:10;0.90;;;0.90;;
4827;SDS011;2428;48.732;9.148;2022-09-09T02:24:37;0.67;;;0.60;;
4827;SDS011;2428;48.732;9.148;2022-09-09T02:27:05;0.77;;;0.77;;
4827;SDS011;2428;48.732;9.148;2022-09-09T02:29:34;0.83;;;0.80;;
4827;SDS011;2428;48.732;9.148;2022-09-09T02:32:05;0.90;;;0.90;;
4827;SDS011;2428;48.732;9.148;2022-09-09T02:34:35;0.70;;;0.70;;
4827;SDS011;2428;48.732;9.148;2022-09-09T02:37:05;0.80;;;0.80;;
4827;SDS011;2428;48.732;9.148;2022-09-09T02:39:33;1.20;;;1.10;;
4827;SDS011;2428;48.732;9.148;2022-09-09T02:41:58;0.60;;;0.60;;
4827;SDS011;2428;48.732;9.148;2022-09-09T02:44:24;0.60;;;0.60;;
4827;SDS011;2428;48.732;9.148;2022-09-09T02:49:57;1.03;;;0.93;;
4827;SDS011;2428;48.732;9.148;2022-09-09T02:53:06;0.80;;;0.80;;
4827;SDS011;2428;48.732;9.148;2022-09-09T02:58:27;1.03;;;0.83;;
4827;SDS011;2428;48.732;9.148;2022-09-09T03:00:53;0.70;;;0.67;;
4827;SDS011;2428;48.732;9.148;2022-09-09T03:03:19;1.40;;;0.70;;
4827;SDS011;2428;48.732;9.148;2022-09-09T03:05:45;0.50;;;0.50;;
4827;SDS011;2428;48.732;9.148;2022-09-09T03:08:11;0.80;;;0.80;;
4827;SDS011;2428;48.732;9.148;2022-09-09T03:10:37;0.70;;;0.70;;
4827;SDS011;2428;48.732;9.148;2022-09-09T03:13:03;0.80;;;0.80;;
4827;SDS011;2428;48.732;9.148;2022-09-09T03:15:30;0.93;;;0.70;;
4827;SDS011;2428;48.732;9.148;2022-09-09T03:17:59;0.70;;;0.70;;
4827;SDS011;2428;48.732;9.148;2022-09-09T03:20:25;0.80;;;0.80;;
4827;SDS011;2428;48.732;9.148;2022-09-09T03:22:52;0.80;;;0.80;;
4827;SDS011;2428;48.732;9.148;2022-09-09T03:25:19;0.93;;;0.40;;
4827;SDS011;2428;48.732;9.148;2022-09-09T03:27:45;3.23;;;0.90;;
4827;SDS011;2428;48.732;9.148;2022-09-09T03:30:10;0.73;;;0.70;;
4827;SDS011;2428;48.732;9.148;2022-09-09T03:32:36;0.70;;;0.50;;
4827;SDS011;2428;48.732;9.148;2022-09-09T03:35:02;0.60;;;0.60;;
4827;SDS011;2428;48.732;9.148;2022-09-09T03:37:28;0.43;;;0.43;;
4827;SDS011;2428;48.732;9.148;2022-09-09T03:39:54;0.40;;;0.40;;
4827;SDS011;2428;48.732;9.148;2022-09-09T03:42:19;0.83;;;0.50;;
4827;SDS011;2428;48.732;9.148;2022-09-09T03:44:46;3.03;;;0.90;;
4827;SDS011;2428;48.732;9.148;2022-09-09T03:47:14;0.63;;;0.60;;
4827;SDS011;2428;48.732;9.148;2022-09-09T03:49:47;0.77;;;0.60;;
4827;SDS011;2428;48.732;9.148;2022-09-09T03:52:13;0.50;;;0.50;;
4827;SDS011;2428;48.732;9.148;2022-09-09T03:54:39;0.60;;;0.60;;
4827;SDS011;2428;48.732;9.148;2022-09-09T03:57:07;0.53;;;0.53;;
4827;SDS011;2428;48.732;9.148;2022-09-09T03:59:33;0.60;;;0.60;;
4827;SDS011;2428;48.732;9.148;2022-09-09T04:02:00;0.60;;;0.60;;
4827;SDS011;2428;48.732;9.148;2022-09-09T04:04:25;0.50;;;0.50;;
4827;SDS011;2428;48.732;9.148;2022-09-09T04:06:52;0.80;;;0.80;;
4827;SDS011;2428;48.732;9.148;2022-09-09T04:09:18;0.83;;;0.80;;
4827;SDS011;2428;48.732;9.148;2022-09-09T04:11:43;5.37;;;0.90;;
4827;SDS011;2428;48.732;9.148;2022-09-09T04:14:09;2.77;;;0.97;;
4827;SDS011;2428;48.732;9.148;2022-09-09T04:16:34;0.60;;;0.60;;
4827;SDS011;2428;48.732;9.148;2022-09-09T04:19:02;0.93;;;0.73;;
4827;SDS011;2428;48.732;9.148;2022-09-09T04:21:29;0.80;;;0.50;;
4827;SDS011;2428;48.732;9.148;2022-09-09T04:23:55;6.10;;;0.93;;
4827;SDS011;2428;48.732;9.148;2022-09-09T04:26:21;0.70;;;0.70;;
4827;SDS011;2428;48.732;9.148;2022-09-09T04:28:47;0.70;;;0.70;;
4827;SDS011;2428;48.732;9.148;2022-09-09T04:31:15;0.80;;;0.77;;
4827;SDS011;2428;48.732;9.148;2022-09-09T04:33:46;0.70;;;0.70;;
4827;SDS011;2428;48.732;9.148;2022-09-09T04:36:12;2.30;;;1.13;;
4827;SDS011;2428;48.732;9.148;2022-09-09T04:38:38;0.70;;;0.70;;
4827;SDS011;2428;48.732;9.148;2022-09-09T04:41:04;1.33;;;0.80;;
4827;SDS011;2428;48.732;9.148;2022-09-09T04:43:30;1.40;;;0.80;;
4827;SDS011;2428;48.732;9.148;2022-09-09T04:45:56;1.33;;;1.23;;
4827;SDS011;2428;48.732;9.148;2022-09-09T04:48:24;2.50;;;0.70;;
4827;SDS011;2428;48.732;9.148;2022-09-09T04:50:54;0.80;;;0.80;;
4827;SDS011;2428;48.732;9.148;2022-09-09T04:53:24;1.27;;;1.20;;
4827;SDS011;2428;48.732;9.148;2022-09-09T04:55:50;1.07;;;1.00;;
4827;SDS011;2428;48.732;9.148;2022-09-09T04:58:16;0.70;;;0.70;;
4827;SDS011;2428;48.732;9.148;2022-09-09T05:00:43;1.10;;;0.90;;
4827;SDS011;2428;48.732;9.148;2022-09-09T05:03:09;0.70;;;0.70;;
4827;SDS011;2428;48.732;9.148;2022-09-09T05:05:34;1.83;;;1.00;;
4827;SDS011;2428;48.732;9.148;2022-09-09T05:08:01;0.80;;;0.70;;
4827;SDS011;2428;48.732;9.148;2022-09-09T05:10:27;4.63;;;1.30;;
4827;SDS011;2428;48.732;9.148;2022-09-09T05:12:53;0.87;;;0.87;;
4827;SDS011;2428;48.732;9.148;2022-09-09T05:15:19;0.90;;;0.90;;
4827;SDS011;2428;48.732;9.148;2022-09-09T05:17:46;2.07;;;1.07;;
4827;SDS011;2428;48.732;9.148;2022-09-09T05:20:11;1.83;;;0.97;;
4827;SDS011;2428;48.732;9.148;2022-09-09T05:22:37;1.13;;;1.13;;
4827;SDS011;2428;48.732;9.148;2022-09-09T05:25:03;0.53;;;0.50;;
4827;SDS011;2428;48.732;9.148;2022-09-09T05:27:29;0.63;;;0.63;;
4827;SDS011;2428;48.732;9.148;2022-09-09T05:29:56;0.63;;;0.63;;
4827;SDS011;2428;48.732;9.148;2022-09-09T05:32:23;0.90;;;0.90;;
4827;SDS011;2428;48.732;9.148;2022-09-09T05:34:49;1.00;;;0.90;;
4827;SDS011;2428;48.732;9.148;2022-09-09T05:37:15;0.70;;;0.63;;
4827;SDS011;2428;48.732;9.148;2022-09-09T05:39:41;0.80;;;0.80;;
4827;SDS011;2428;48.732;9.148;2022-09-09T05:42:07;1.90;;;1.17;;
4827;SDS011;2428;48.732;9.148;2022-09-09T05:44:33;0.80;;;0.80;;
4827;SDS011;2428;48.732;9.148;2022-09-09T05:46:58;3.07;;;0.90;;
4827;SDS011;2428;48.732;9.148;2022-09-09T05:49:24;1.50;;;0.90;;
4827;SDS011;2428;48.732;9.148;2022-09-09T05:51:50;2.60;;;0.63;;
4827;SDS011;2428;48.732;9.148;2022-09-09T05:54:16;1.00;;;0.90;;
4827;SDS011;2428;48.732;9.148;2022-09-09T05:56:41;0.90;;;0.80;;
4827;SDS011;2428;48.732;9.148;2022-09-09T05:59:10;0.97;;;0.77;;
4827;SDS011;2428;48.732;9.148;2022-09-09T06:01:37;1.60;;;0.73;;
4827;SDS011;2428;48.732;9.148;2022-09-09T06:04:07;0.57;;;0.57;;
4827;SDS011;2428;48.732;9.148;2022-09-09T06:06:34;0.63;;;0.63;;
4827;SDS011;2428;48.732;9.148;2022-09-09T06:09:05;0.73;;;0.70;;
4827;SDS011;2428;48.732;9.148;2022-09-09T06:11:34;0.73;;;0.73;;
4827;SDS011;2428;48.732;9.148;2022-09-09T06:14:01;1.73;;;0.70;;
4827;SDS011;2428;48.732;9.148;2022-09-09T06:16:27;0.80;;;0.80;;
4827;SDS011;2428;48.732;9.148;2022-09-09T06:18:54;1.03;;;0.70;;
4827;SDS011;2428;48.732;9.148;2022-09-09T06:21:28;1.73;;;1.30;;
4827;SDS011;2428;48.732;9.148;2022-09-09T06:23:55;2.30;;;0.83;;
4827;SDS011;2428;48.732;9.148;2022-09-09T06:26:25;2.87;;;1.10;;
4827;SDS011;2428;48.732;9.148;2022-09-09T06:28:55;1.53;;;0.97;;
4827;SDS011;2428;48.732;9.148;2022-09-09T06:31:24;0.67;;;0.60;;
4827;SDS011;2428;48.732;9.148;2022-09-09T06:33:55;1.23;;;1.00;;
4827;SDS011;2428;48.732;9.148;2022-09-09T06:36:22;0.97;;;0.87;;
4827;SDS011;2428;48.732;9.148;2022-09-09T06:38:52;3.30;;;1.07;;
4827;SDS011;2428;48.732;9.148;2022-09-09T06:41:19;1.00;;;0.90;;
4827;SDS011;2428;48.732;9.148;2022-09-09T06:43:47;1.43;;;1.20;;
4827;SDS011;2428;48.732;9.148;2022-09-09T06:48:43;1.30;;;1.03;;
4827;SDS011;2428;48.732;9.148;2022-09-09T06:51:11;0.70;;;0.70;;
4827;SDS011;2428;48.732;9.148;2022-09-09T06:53:37;1.00;;;1.00;;
4827;SDS011;2428;48.732;9.148;2022-09-09T06:58:41;0.90;;;0.90;;
4827;SDS011;2428;48.732;9.148;2022-09-09T07:01:09;0.80;;;0.60;;
4827;SDS011;2428;48.732;9.148;2022-09-09T07:03:37;1.37;;;0.70;;
4827;SDS011;2428;48.732;9.148;2022-09-09T07:06:03;2.20;;;1.00;;
4827;SDS011;2428;48.732;9.148;2022-09-09T07:08:30;1.27;;;1.17;;
4827;SDS011;2428;48.732;9.148;2022-09-09T07:11:05;0.80;;;0.70;;
4827;SDS011;2428;48.732;9.148;2022-09-09T07:13:33;0.70;;;0.70;;
4827;SDS011;2428;48.732;9.148;2022-09-09T07:16:03;2.70;;;1.40;;
4827;SDS011;2428;48.732;9.148;2022-09-09T07:18:33;0.60;;;0.60;;
4827;SDS011;2428;48.732;9.148;2022-09-09T07:20:59;2.00;;;1.07;;
4827;SDS011;2428;48.732;9.148;2022-09-09T07:23:27;1.43;;;0.60;;
4827;SDS011;2428;48.732;9.148;2022-09-09T07:25:53;1.07;;;0.87;;
4827;SDS011;2428;48.732;9.148;2022-09-09T07:28:19;0.63;;;0.60;;
4827;SDS011;2428;48.732;9.148;2022-09-09T07:33:21;1.23;;;1.00;;
4827;SDS011;2428;48.732;9.148;2022-09-09T07:35:47;0.60;;;0.60;;
4827;SDS011;2428;48.732;9.148;2022-09-09T07:38:12;0.80;;;0.80;;
4827;SDS011;2428;48.732;9.148;2022-09-09T07:40:39;1.00;;;0.93;;
4827;SDS011;2428;48.732;9.148;2022-09-09T07:43:05;0.87;;;0.63;;
4827;SDS011;2428;48.732;9.148;2022-09-09T07:45:30;0.70;;;0.53;;
4827;SDS011;2428;48.732;9.148;2022-09-09T07:47:58;1.00;;;0.90;;
4827;SDS011;2428;48.732;9.148;2022-09-09T07:50:24;0.83;;;0.70;;
4827;SDS011;2428;48.732;9.148;2022-09-09T07:52:51;0.87;;;0.83;;
4827;SDS011;2428;48.732;9.148;2022-09-09T07:55:17;1.40;;;1.30;;
4827;SDS011;2428;48.732;9.148;2022-09-09T07:57:42;0.80;;;0.70;;
4827;SDS011;2428;48.732;9.148;2022-09-09T08:00:08;0.70;;;0.70;;
4827;SDS011;2428;48.732;9.148;2022-09-09T08:02:35;1.10;;;0.97;;
4827;SDS011;2428;48.732;9.148;2022-09-09T08:05:01;1.27;;;1.03;;
4827;SDS011;2428;48.732;9.148;2022-09-09T08:07:27;0.73;;;0.70;;
4827;SDS011;2428;48.732;9.148;2022-09-09T08:09:53;0.93;;;0.83;;
4827;SDS011;2428;48.732;9.148;2022-09-09T08:12:20;1.43;;;1.33;;
4827;SDS011;2428;48.732;9.148;2022-09-09T08:14:46;1.10;;;0.70;;
4827;SDS011;2428;48.732;9.148;2022-09-09T08:17:13;1.00;;;0.70;;
4827;SDS011;2428;48.732;9.148;2022-09-09T08:19:39;0.70;;;0.70;;
4827;SDS011;2428;48.732;9.148;2022-09-09T08:22:04;0.60;;;0.60;;
4827;SDS011;2428;48.732;9.148;2022-09-09T08:24:30;0.90;;;0.57;;
4827;SDS011;2428;48.732;9.148;2022-09-09T08:26:56;0.60;;;0.60;;
4827;SDS011;2428;48.732;9.148;2022-09-09T08:29:22;0.60;;;0.57;;
4827;SDS011;2428;48.732;9.148;2022-09-09T08:31:48;0.90;;;0.90;;
4827;SDS011;2428;48.732;9.148;2022-09-09T08:34:16;0.80;;;0.80;;
4827;SDS011;2428;48.732;9.148;2022-09-09T08:36:44;0.70;;;0.70;;
4827;SDS011;2428;48.732;9.148;2022-09-09T08:39:12;0.60;;;0.60;;
4827;SDS011;2428;48.732;9.148;2022-09-09T08:44:52;0.63;;;0.63;;
4827;SDS011;2428;48.732;9.148;2022-09-09T08:54:50;0.83;;;0.80;;
4827;SDS011;2428;48.732;9.148;2022-09-09T08:57:26;1.20;;;0.80;;
4827;SDS011;2428;48.732;9.148;2022-09-09T08:59:53;1.37;;;0.77;;
4827;SDS011;2428;48.732;9.148;2022-09-09T09:08:27;0.70;;;0.60;;
4827;SDS011;2428;48.732;9.148;2022-09-09T09:10:54;1.60;;;0.60;;
4827;SDS011;2428;48.732;9.148;2022-09-09T09:16:19;0.50;;;0.43;;
4827;SDS011;2428;48.732;9.148;2022-09-09T09:18:57;0.73;;;0.73;;
4827;SDS011;2428;48.732;9.148;2022-09-09T09:24:18;2.67;;;0.53;;
4827;SDS011;2428;48.732;9.148;2022-09-09T09:26:44;1.93;;;0.50;;
4827;SDS011;2428;48.732;9.148;2022-09-09T09:29:11;0.73;;;0.73;;
4827;SDS011;2428;48.732;9.148;2022-09-09T09:31:53;1.83;;;0.60;;
4827;SDS011;2428;48.732;9.148;2022-09-09T09:34:22;0.60;;;0.40;;
4827;SDS011;2428;48.732;9.148;2022-09-09T09:36:58;0.60;;;0.50;;
4827;SDS011;2428;48.732;9.148;2022-09-09T09:39:30;0.70;;;0.70;;
4827;SDS011;2428;48.732;9.148;2022-09-09T09:42:11;0.40;;;0.40;;
4827;SDS011;2428;48.732;9.148;2022-09-09T09:44:40;0.70;;;0.63;;
4827;SDS011;2428;48.732;9.148;2022-09-09T09:49:53;0.70;;;0.60;;
4827;SDS011;2428;48.732;9.148;2022-09-09T09:52:21;0.90;;;0.50;;
4827;SDS011;2428;48.732;9.148;2022-09-09T09:54:49;0.60;;;0.60;;
4827;SDS011;2428;48.732;9.148;2022-09-09T09:57:17;3.90;;;0.90;;
4827;SDS011;2428;48.732;9.148;2022-09-09T09:59:44;1.03;;;0.93;;
4827;SDS011;2428;48.732;9.148;2022-09-09T10:04:45;0.83;;;0.80;;
4827;SDS011;2428;48.732;9.148;2022-09-09T10:07:13;0.80;;;0.80;;
4827;SDS011;2428;48.732;9.148;2022-09-09T10:09:46;0.73;;;0.60;;
4827;SDS011;2428;48.732;9.148;2022-09-09T10:22:34;0.80;;;0.70;;
4827;SDS011;2428;48.732;9.148;2022-09-09T10:25:21;1.07;;;0.50;;
4827;SDS011;2428;48.732;9.148;2022-09-09T10:33:37;2.67;;;0.80;;
4827;SDS011;2428;48.732;9.148;2022-09-09T10:36:23;2.17;;;0.70;;
4827;SDS011;2428;48.732;9.148;2022-09-09T10:44:34;0.73;;;0.67;;
4827;SDS011;2428;48.732;9.148;2022-09-09T10:55:59;1.80;;;0.80;;
4827;SDS011;2428;48.732;9.148;2022-09-09T10:59:05;1.00;;;0.90;;
4827;SDS011;2428;48.732;9.148;2022-09-09T11:01:49;0.67;;;0.57;;
4827;SDS011;2428;48.732;9.148;2022-09-09T11:07:13;0.70;;;0.70;;
4827;SDS011;2428;48.732;9.148;2022-09-09T11:09:54;0.73;;;0.73;;
4827;SDS011;2428;48.732;9.148;2022-09-09T11:12:25;1.47;;;0.90;;
4827;SDS011;2428;48.732;9.148;2022-09-09T11:15:03;0.50;;;0.50;;
4827;SDS011;2428;48.732;9.148;2022-09-09T11:17:46;0.50;;;0.50;;
4827;SDS011;2428;48.732;9.148;2022-09-09T11:20:25;2.23;;;0.43;;
4827;SDS011;2428;48.732;9.148;2022-09-09T11:22:55;0.40;;;0.40;;
4827;SDS011;2428;48.732;9.148;2022-09-09T11:25:34;0.40;;;0.40;;
4827;SDS011;2428;48.732;9.148;2022-09-09T11:40:30;1.47;;;0.40;;
4827;SDS011;2428;48.732;9.148;2022-09-09T11:43:00;0.50;;;0.50;;
4827;SDS011;2428;48.732;9.148;2022-09-09T11:45:29;0.40;;;0.30;;
4827;SDS011;2428;48.732;9.148;2022-09-09T11:47:59;0.57;;;0.47;;
4827;SDS011;2428;48.732;9.148;2022-09-09T11:52:51;1.57;;;0.50;;
4827;SDS011;2428;48.732;9.148;2022-09-09T11:55:30;0.70;;;0.30;;
4827;SDS011;2428;48.732;9.148;2022-09-09T11:58:02;0.40;;;0.33;;
4827;SDS011;2428;48.732;9.148;2022-09-09T12:03:05;1.57;;;0.67;;
4827;SDS011;2428;48.732;9.148;2022-09-09T12:05:51;0.30;;;0.20;;
4827;SDS011;2428;48.732;9.148;2022-09-09T12:08:19;0.70;;;0.30;;
4827;SDS011;2428;48.732;9.148;2022-09-09T12:10:56;0.40;;;0.30;;
4827;SDS011;2428;48.732;9.148;2022-09-09T12:13:23;0.40;;;0.30;;
4827;SDS011;2428;48.732;9.148;2022-09-09T12:15:55;1.33;;;0.40;;
4827;SDS011;2428;48.732;9.148;2022-09-09T12:18:22;0.40;;;0.33;;
4827;SDS011;2428;48.732;9.148;2022-09-09T12:21:06;0.30;;;0.20;;
4827;SDS011;2428;48.732;9.148;2022-09-09T12:23:55;0.30;;;0.30;;
4827;SDS011;2428;48.732;9.148;2022-09-09T12:34:39;0.67;;;0.40;;
4827;SDS011;2428;48.732;9.148;2022-09-09T12:40:01;1.10;;;0.30;;
4827;SDS011;2428;48.732;9.148;2022-09-09T12:42:29;0.63;;;0.40;;
4827;SDS011;2428;48.732;9.148;2022-09-09T12:45:00;0.57;;;0.57;;
4827;SDS011;2428;48.732;9.148;2022-09-09T12:52:59;0.50;;;0.40;;
4827;SDS011;2428;48.732;9.148;2022-09-09T12:55:28;0.40;;;0.30;;
4827;SDS011;2428;48.732;9.148;2022-09-09T12:57:56;0.40;;;0.37;;
4827;SDS011;2428;48.732;9.148;2022-09-09T13:00:24;0.50;;;0.50;;
4827;SDS011;2428;48.732;9.148;2022-09-09T13:02:58;0.50;;;0.37;;
4827;SDS011;2428;48.732;9.148;2022-09-09T13:05:34;0.93;;;0.40;;
4827;SDS011;2428;48.732;9.148;2022-09-09T13:08:04;0.30;;;0.27;;
4827;SDS011;2428;48.732;9.148;2022-09-09T13:10:46;3.60;;;0.60;;
4827;SDS011;2428;48.732;9.148;2022-09-09T13:13:19;0.40;;;0.30;;
4827;SDS011;2428;48.732;9.148;2022-09-09T13:15:48;0.60;;;0.30;;
4827;SDS011;2428;48.732;9.148;2022-09-09T13:18:21;0.57;;;0.40;;
4827;SDS011;2428;48.732;9.148;2022-09-09T13:20:48;0.43;;;0.40;;
4827;SDS011;2428;48.732;9.148;2022-09-09T13:23:16;1.07;;;0.57;;
4827;SDS011;2428;48.732;9.148;2022-09-09T13:25:57;0.40;;;0.40;;
4827;SDS011;2428;48.732;9.148;2022-09-09T13:28:26;0.30;;;0.30;;
4827;SDS011;2428;48.732;9.148;2022-09-09T13:31:01;0.40;;;0.30;;
4827;SDS011;2428;48.732;9.148;2022-09-09T13:33:35;0.83;;;0.30;;
4827;SDS011;2428;48.732;9.148;2022-09-09T13:36:03;0.53;;;0.40;;
4827;SDS011;2428;48.732;9.148;2022-09-09T13:38:31;0.67;;;0.40;;
4827;SDS011;2428;48.732;9.148;2022-09-09T13:41:01;0.60;;;0.40;;
4827;SDS011;2428;48.732;9.148;2022-09-09T13:43:29;1.23;;;0.40;;
4827;SDS011;2428;48.732;9.148;2022-09-09T13:46:30;0.50;;;0.30;;
4827;SDS011;2428;48.732;9.148;2022-09-09T13:49:02;0.50;;;0.30;;
4827;SDS011;2428;48.732;9.148;2022-09-09T13:51:45;0.60;;;0.40;;
4827;SDS011;2428;48.732;9.148;2022-09-09T13:54:13;0.40;;;0.33;;
4827;SDS011;2428;48.732;9.148;2022-09-09T13:56:40;3.90;;;0.40;;
4827;SDS011;2428;48.732;9.148;2022-09-09T13:59:24;0.77;;;0.70;;
4827;SDS011;2428;48.732;9.148;2022-09-09T14:01:50;0.40;;;0.30;;
4827;SDS011;2428;48.732;9.148;2022-09-09T14:04:17;0.40;;;0.40;;
4827;SDS011;2428;48.732;9.148;2022-09-09T14:06:45;0.30;;;0.20;;
4827;SDS011;2428;48.732;9.148;2022-09-09T14:09:11;0.40;;;0.20;;
4827;SDS011;2428;48.732;9.148;2022-09-09T14:11:38;0.50;;;0.20;;
4827;SDS011;2428;48.732;9.148;2022-09-09T14:14:05;0.40;;;0.40;;
4827;SDS011;2428;48.732;9.148;2022-09-09T14:16:31;0.97;;;0.50;;
4827;SDS011;2428;48.732;9.148;2022-09-09T14:18:56;0.50;;;0.50;;
4827;SDS011;2428;48.732;9.148;2022-09-09T14:21:22;0.43;;;0.43;;
4827;SDS011;2428;48.732;9.148;2022-09-09T14:23:49;1.10;;;0.20;;
4827;SDS011;2428;48.732;9.148;2022-09-09T14:26:14;0.63;;;0.37;;
4827;SDS011;2428;48.732;9.148;2022-09-09T14:28:40;1.57;;;0.30;;
4827;SDS011;2428;48.732;9.148;2022-09-09T14:31:06;1.07;;;0.40;;
4827;SDS011;2428;48.732;9.148;2022-09-09T14:33:32;0.70;;;0.30;;
4827;SDS011;2428;48.732;9.148;2022-09-09T14:35:58;0.60;;;0.30;;
4827;SDS011;2428;48.732;9.148;2022-09-09T14:38:28;0.40;;;0.30;;
4827;SDS011;2428;48.732;9.148;2022-09-09T14:40:55;0.90;;;0.40;;
4827;SDS011;2428;48.732;9.148;2022-09-09T14:43:21;1.43;;;0.40;;
4827;SDS011;2428;48.732;9.148;2022-09-09T14:45:46;0.70;;;0.50;;
4827;SDS011;2428;48.732;9.148;2022-09-09T14:48:13;0.30;;;0.20;;
4827;SDS011;2428;48.732;9.148;2022-09-09T14:50:40;0.80;;;0.40;;
4827;SDS011;2428;48.732;9.148;2022-09-09T14:53:06;0.30;;;0.20;;
4827;SDS011;2428;48.732;9.148;2022-09-09T14:55:32;0.30;;;0.20;;
4827;SDS011;2428;48.732;9.148;2022-09-09T14:57:58;1.30;;;0.30;;
4827;SDS011;2428;48.732;9.148;2022-09-09T15:00:23;0.87;;;0.50;;
4827;SDS011;2428;48.732;9.148;2022-09-09T15:02:51;0.40;;;0.30;;
4827;SDS011;2428;48.732;9.148;2022-09-09T15:05:21;0.40;;;0.20;;
4827;SDS011;2428;48.732;9.148;2022-09-09T15:07:47;0.50;;;0.37;;
4827;SDS011;2428;48.732;9.148;2022-09-09T15:10:15;0.70;;;0.30;;
4827;SDS011;2428;48.732;9.148;2022-09-09T15:12:42;0.40;;;0.30;;
4827;SDS011;2428;48.732;9.148;2022-09-09T15:15:08;0.40;;;0.30;;
4827;SDS011;2428;48.732;9.148;2022-09-09T15:17:34;0.50;;;0.40;;
4827;SDS011;2428;48.732;9.148;2022-09-09T15:20:01;1.63;;;0.30;;
4827;SDS011;2428;48.732;9.148;2022-09-09T15:22:31;0.50;;;0.50;;
4827;SDS011;2428;48.732;9.148;2022-09-09T15:24:56;0.60;;;0.40;;
4827;SDS011;2428;48.732;9.148;2022-09-09T15:27:22;0.50;;;0.50;;
4827;SDS011;2428;48.732;9.148;2022-09-09T15:29:48;2.33;;;0.60;;
4827;SDS011;2428;48.732;9.148;2022-09-09T15:32:15;0.50;;;0.30;;
4827;SDS011;2428;48.732;9.148;2022-09-09T15:34:40;1.40;;;0.60;;
4827;SDS011;2428;48.732;9.148;2022-09-09T15:37:09;0.40;;;0.40;;
4827;SDS011;2428;48.732;9.148;2022-09-09T15:39:35;0.40;;;0.40;;
4827;SDS011;2428;48.732;9.148;2022-09-09T15:42:01;0.80;;;0.40;;
4827;SDS011;2428;48.732;9.148;2022-09-09T15:44:27;0.40;;;0.30;;
4827;SDS011;2428;48.732;9.148;2022-09-09T15:46:52;1.27;;;0.50;;
4827;SDS011;2428;48.732;9.148;2022-09-09T15:49:22;0.40;;;0.37;;
4827;SDS011;2428;48.732;9.148;2022-09-09T15:51:52;0.40;;;0.30;;
4827;SDS011;2428;48.732;9.148;2022-09-09T15:54:21;0.70;;;0.57;;
4827;SDS011;2428;48.732;9.148;2022-09-09T15:56:52;0.30;;;0.30;;
4827;SDS011;2428;48.732;9.148;2022-09-09T15:59:20;0.50;;;0.43;;
4827;SDS011;2428;48.732;9.148;2022-09-09T16:01:47;0.40;;;0.40;;
4827;SDS011;2428;48.732;9.148;2022-09-09T16:04:16;0.40;;;0.23;;
4827;SDS011;2428;48.732;9.148;2022-09-09T16:06:48;1.17;;;0.53;;
4827;SDS011;2428;48.732;9.148;2022-09-09T16:09:15;0.97;;;0.50;;
4827;SDS011;2428;48.732;9.148;2022-09-09T16:11:41;0.57;;;0.37;;
4827;SDS011;2428;48.732;9.148;2022-09-09T16:14:07;0.37;;;0.30;;
4827;SDS011;2428;48.732;9.148;2022-09-09T16:16:32;0.47;;;0.47;;
4827;SDS011;2428;48.732;9.148;2022-09-09T16:19:01;0.60;;;0.33;;
4827;SDS011;2428;48.732;9.148;2022-09-09T16:21:36;0.40;;;0.30;;
4827;SDS011;2428;48.732;9.148;2022-09-09T16:24:05;0.40;;;0.30;;
4827;SDS011;2428;48.732;9.148;2022-09-09T16:26:33;0.40;;;0.30;;
4827;SDS011;2428;48.732;9.148;2022-09-09T16:29:00;0.50;;;0.40;;
4827;SDS011;2428;48.732;9.148;2022-09-09T16:31:27;0.37;;;0.20;;
4827;SDS011;2428;48.732;9.148;2022-09-09T16:33:55;0.40;;;0.40;;
4827;SDS011;2428;48.732;9.148;2022-09-09T16:36:22;0.40;;;0.40;;
4827;SDS011;2428;48.732;9.148;2022-09-09T16:38:52;1.33;;;0.70;;
4827;SDS011;2428;48.732;9.148;2022-09-09T16:41:19;0.40;;;0.40;;
4827;SDS011;2428;48.732;9.148;2022-09-09T16:43:45;2.43;;;0.30;;
4827;SDS011;2428;48.732;9.148;2022-09-09T16:46:18;0.40;;;0.37;;
4827;SDS011;2428;48.732;9.148;2022-09-09T16:48:45;0.37;;;0.37;;
4827;SDS011;2428;48.732;9.148;2022-09-09T16:51:13;0.57;;;0.37;;
4827;SDS011;2428;48.732;9.148;2022-09-09T16:53:41;0.60;;;0.30;;
4827;SDS011;2428;48.732;9.148;2022-09-09T16:56:08;0.40;;;0.40;;
4827;SDS011;2428;48.732;9.148;2022-09-09T16:58:36;0.30;;;0.20;;
4827;SDS011;2428;48.732;9.148;2022-09-09T17:01:02;0.30;;;0.20;;
4827;SDS011;2428;48.732;9.148;2022-09-09T17:03:28;0.60;;;0.30;;
4827;SDS011;2428;48.732;9.148;2022-09-09T17:05:54;0.30;;;0.20;;
4827;SDS011;2428;48.732;9.148;2022-09-09T17:08:22;0.30;;;0.20;;
4827;SDS011;2428;48.732;9.148;2022-09-09T17:10:48;0.40;;;0.30;;
4827;SDS011;2428;48.732;9.148;2022-09-09T17:13:15;0.30;;;0.20;;
4827;SDS011;2428;48.732;9.148;2022-09-09T17:15:44;0.30;;;0.20;;
4827;SDS011;2428;48.732;9.148;2022-09-09T17:18:11;0.40;;;0.30;;
4827;SDS011;2428;48.732;9.148;2022-09-09T17:20:38;0.40;;;0.30;;
4827;SDS011;2428;48.732;9.148;2022-09-09T17:23:05;0.40;;;0.30;;
4827;SDS011;2428;48.732;9.148;2022-09-09T17:25:32;0.37;;;0.30;;
4827;SDS011;2428;48.732;9.148;2022-09-09T17:27:58;0.40;;;0.40;;
4827;SDS011;2428;48.732;9.148;2022-09-09T17:30:24;0.30;;;0.20;;
4827;SDS011;2428;48.732;9.148;2022-09-09T17:32:51;0.50;;;0.30;;
4827;SDS011;2428;48.732;9.148;2022-09-09T17:35:16;0.40;;;0.30;;
4827;SDS011;2428;48.732;9.148;2022-09-09T17:37:42;0.70;;;0.70;;
4827;SDS011;2428;48.732;9.148;2022-09-09T17:40:09;0.40;;;0.40;;
4827;SDS011;2428;48.732;9.148;2022-09-09T17:42:35;0.47;;;0.30;;
4827;SDS011;2428;48.732;9.148;2022-09-09T17:45:01;0.40;;;0.40;;
4827;SDS011;2428;48.732;9.148;2022-09-09T17:47:27;1.03;;;0.90;;
4827;SDS011;2428;48.732;9.148;2022-09-09T17:49:53;0.30;;;0.20;;
4827;SDS011;2428;48.732;9.148;2022-09-09T17:52:19;0.30;;;0.30;;